sensor_id;sensor_type;location;lat;lon;timestamp;temperature;humidity
17891;DHT22;9071;48.220;14.480;2023-05-23T00:00:19;14.00;99.90
17891;DHT22;9071;48.220;14.480;2023-05-23T00:05:21;14.10;99.90
17891;DHT22;9071;48.220;14.480;2023-05-23T00:10:23;14.00;99.90
17891;DHT22;9071;48.220;14.480;2023-05-23T00:15:27;13.90;99.90
17891;DHT22;9071;48.220;14.480;2023-05-23T00:20:29;13.80;99.90
17891;DHT22;9071;48.220;14.480;2023-05-23T00:25:31;13.70;99.90
17891;DHT22;9071;48.220;14.480;2023-05-23T00:30:36;13.70;99.90
17891;DHT22;9071;48.220;14.480;2023-05-23T00:35:39;13.60;99.90
17891;DHT22;9071;48.220;14.480;2023-05-23T00:40:42;13.50;99.90
17891;DHT22;9071;48.220;14.480;2023-05-23T00:45:46;13.50;99.90
17891;DHT22;9071;48.220;14.480;2023-05-23T00:50:49;13.50;99.90
17891;DHT22;9071;48.220;14.480;2023-05-23T00:55:51;13.40;99.90
17891;DHT22;9071;48.220;14.480;2023-05-23T01:00:54;13.50;99.90
17891;DHT22;9071;48.220;14.480;2023-05-23T01:05:57;13.40;99.90
17891;DHT22;9071;48.220;14.480;2023-05-23T01:11:03;13.30;99.90
17891;DHT22;9071;48.220;14.480;2023-05-23T01:16:13;13.30;99.90
17891;DHT22;9071;48.220;14.480;2023-05-23T01:21:20;13.20;99.90
17891;DHT22;9071;48.220;14.480;2023-05-23T01:26:32;13.10;99.90
17891;DHT22;9071;48.220;14.480;2023-05-23T01:31:40;13.10;99.90
17891;DHT22;9071;48.220;14.480;2023-05-23T01:36:43;13.10;99.90
17891;DHT22;9071;48.220;14.480;2023-05-23T01:41:47;13.10;99.90
17891;DHT22;9071;48.220;14.480;2023-05-23T01:46:50;12.90;99.90
17891;DHT22;9071;48.220;14.480;2023-05-23T01:51:52;12.90;99.90
17891;DHT22;9071;48.220;14.480;2023-05-23T01:56:56;12.80;99.90
17891;DHT22;9071;48.220;14.480;2023-05-23T02:01:59;12.80;99.90
17891;DHT22;9071;48.220;14.480;2023-05-23T02:07:02;12.80;99.90
17891;DHT22;9071;48.220;14.480;2023-05-23T02:12:04;12.90;99.90
17891;DHT22;9071;48.220;14.480;2023-05-23T02:17:07;12.80;99.90
17891;DHT22;9071;48.220;14.480;2023-05-23T02:22:10;12.80;99.90
17891;DHT22;9071;48.220;14.480;2023-05-23T02:27:12;12.90;99.90
17891;DHT22;9071;48.220;14.480;2023-05-23T02:32:16;12.90;99.90
17891;DHT22;9071;48.220;14.480;2023-05-23T02:37:18;12.90;99.90
17891;DHT22;9071;48.220;14.480;2023-05-23T02:42:20;12.80;99.90
17891;DHT22;9071;48.220;14.480;2023-05-23T02:47:23;12.70;99.90
17891;DHT22;9071;48.220;14.480;2023-05-23T02:52:25;12.60;99.90
17891;DHT22;9071;48.220;14.480;2023-05-23T02:57:27;12.60;99.90
17891;DHT22;9071;48.220;14.480;2023-05-23T03:02:31;12.60;99.90
17891;DHT22;9071;48.220;14.480;2023-05-23T03:07:33;12.50;99.90
17891;DHT22;9071;48.220;14.480;2023-05-23T03:12:36;12.40;99.90
17891;DHT22;9071;48.220;14.480;2023-05-23T03:17:39;12.40;99.90
17891;DHT22;9071;48.220;14.480;2023-05-23T03:22:41;12.40;99.90
17891;DHT22;9071;48.220;14.480;2023-05-23T03:27:45;12.50;99.90
17891;DHT22;9071;48.220;14.480;2023-05-23T03:32:48;12.50;99.90
17891;DHT22;9071;48.220;14.480;2023-05-23T03:37:50;12.50;99.90
17891;DHT22;9071;48.220;14.480;2023-05-23T03:43:01;12.60;99.90
17891;DHT22;9071;48.220;14.480;2023-05-23T03:48:05;12.60;99.90
17891;DHT22;9071;48.220;14.480;2023-05-23T03:53:07;12.70;99.90
17891;DHT22;9071;48.220;14.480;2023-05-23T03:58:09;12.80;99.90
17891;DHT22;9071;48.220;14.480;2023-05-23T04:03:13;12.90;99.90
17891;DHT22;9071;48.220;14.480;2023-05-23T04:08:16;13.10;99.90
17891;DHT22;9071;48.220;14.480;2023-05-23T04:13:21;13.20;99.90
17891;DHT22;9071;48.220;14.480;2023-05-23T04:18:26;13.40;99.90
17891;DHT22;9071;48.220;14.480;2023-05-23T04:23:28;13.70;99.90
17891;DHT22;9071;48.220;14.480;2023-05-23T04:28:30;14.00;99.90
17891;DHT22;9071;48.220;14.480;2023-05-23T04:33:33;14.30;99.90
17891;DHT22;9071;48.220;14.480;2023-05-23T04:38:36;14.60;99.90
17891;DHT22;9071;48.220;14.480;2023-05-23T04:43:38;14.70;99.90
17891;DHT22;9071;48.220;14.480;2023-05-23T04:48:43;14.90;99.90
17891;DHT22;9071;48.220;14.480;2023-05-23T04:53:45;15.00;99.90
17891;DHT22;9071;48.220;14.480;2023-05-23T04:58:47;15.20;99.90
17891;DHT22;9071;48.220;14.480;2023-05-23T05:03:51;15.40;99.90
17891;DHT22;9071;48.220;14.480;2023-05-23T05:08:53;16.00;99.90
17891;DHT22;9071;48.220;14.480;2023-05-23T05:13:55;16.50;99.90
17891;DHT22;9071;48.220;14.480;2023-05-23T05:18:59;16.90;99.90
17891;DHT22;9071;48.220;14.480;2023-05-23T05:24:01;17.70;99.90
17891;DHT22;9071;48.220;14.480;2023-05-23T05:29:03;19.70;99.90
17891;DHT22;9071;48.220;14.480;2023-05-23T05:34:07;21.70;99.90
17891;DHT22;9071;48.220;14.480;2023-05-23T05:39:09;23.30;99.90
17891;DHT22;9071;48.220;14.480;2023-05-23T05:44:11;24.60;99.90
17891;DHT22;9071;48.220;14.480;2023-05-23T05:49:14;25.10;99.90
17891;DHT22;9071;48.220;14.480;2023-05-23T05:54:16;26.40;99.90
17891;DHT22;9071;48.220;14.480;2023-05-23T05:59:18;25.80;99.90
17891;DHT22;9071;48.220;14.480;2023-05-23T06:04:22;24.10;99.90
17891;DHT22;9071;48.220;14.480;2023-05-23T06:09:24;23.30;99.90
17891;DHT22;9071;48.220;14.480;2023-05-23T06:14:26;22.90;99.90
17891;DHT22;9071;48.220;14.480;2023-05-23T06:19:29;22.30;99.90
17891;DHT22;9071;48.220;14.480;2023-05-23T06:24:31;21.90;99.90
17891;DHT22;9071;48.220;14.480;2023-05-23T06:29:33;21.60;99.90
17891;DHT22;9071;48.220;14.480;2023-05-23T06:34:37;20.90;99.90
17891;DHT22;9071;48.220;14.480;2023-05-23T06:39:40;20.50;99.90
17891;DHT22;9071;48.220;14.480;2023-05-23T06:44:42;20.30;99.90
17891;DHT22;9071;48.220;14.480;2023-05-23T06:49:45;20.10;99.90
17891;DHT22;9071;48.220;14.480;2023-05-23T06:54:47;20.20;99.90
17891;DHT22;9071;48.220;14.480;2023-05-23T06:59:51;20.30;99.90
17891;DHT22;9071;48.220;14.480;2023-05-23T07:04:54;20.60;99.90
17891;DHT22;9071;48.220;14.480;2023-05-23T07:09:56;21.30;99.90
17891;DHT22;9071;48.220;14.480;2023-05-23T07:14:58;22.20;99.90
17891;DHT22;9071;48.220;14.480;2023-05-23T07:20:02;22.40;99.90
17891;DHT22;9071;48.220;14.480;2023-05-23T07:25:05;22.30;99.90
17891;DHT22;9071;48.220;14.480;2023-05-23T07:30:08;22.80;99.90
17891;DHT22;9071;48.220;14.480;2023-05-23T07:35:12;23.20;99.90
17891;DHT22;9071;48.220;14.480;2023-05-23T07:40:14;23.50;99.90
17891;DHT22;9071;48.220;14.480;2023-05-23T07:45:16;24.30;99.90
17891;DHT22;9071;48.220;14.480;2023-05-23T07:50:20;24.30;99.90
17891;DHT22;9071;48.220;14.480;2023-05-23T07:55:22;24.00;99.90
17891;DHT22;9071;48.220;14.480;2023-05-23T08:00:24;25.00;99.90
17891;DHT22;9071;48.220;14.480;2023-05-23T08:05:28;24.20;99.90
17891;DHT22;9071;48.220;14.480;2023-05-23T08:10:30;24.00;99.90
17891;DHT22;9071;48.220;14.480;2023-05-23T08:15:32;23.20;99.90
17891;DHT22;9071;48.220;14.480;2023-05-23T08:20:35;22.00;99.90
17891;DHT22;9071;48.220;14.480;2023-05-23T08:25:37;21.40;99.90
17891;DHT22;9071;48.220;14.480;2023-05-23T08:30:40;20.80;99.90
17891;DHT22;9071;48.220;14.480;2023-05-23T08:35:43;20.60;99.90
17891;DHT22;9071;48.220;14.480;2023-05-23T08:40:49;20.50;99.90
17891;DHT22;9071;48.220;14.480;2023-05-23T08:45:51;20.50;99.90
17891;DHT22;9071;48.220;14.480;2023-05-23T08:50:57;21.00;99.90
17891;DHT22;9071;48.220;14.480;2023-05-23T08:56:01;21.40;99.90
17891;DHT22;9071;48.220;14.480;2023-05-23T09:01:03;21.40;99.90
17891;DHT22;9071;48.220;14.480;2023-05-23T09:06:08;21.50;99.90
17891;DHT22;9071;48.220;14.480;2023-05-23T09:11:10;21.90;99.90
17891;DHT22;9071;48.220;14.480;2023-05-23T09:16:15;22.40;99.90
17891;DHT22;9071;48.220;14.480;2023-05-23T09:21:19;22.70;99.90
17891;DHT22;9071;48.220;14.480;2023-05-23T09:26:22;23.50;99.90
17891;DHT22;9071;48.220;14.480;2023-05-23T09:31:25;24.10;99.90
17891;DHT22;9071;48.220;14.480;2023-05-23T09:36:31;24.20;99.90
17891;DHT22;9071;48.220;14.480;2023-05-23T09:41:34;24.70;99.90
17891;DHT22;9071;48.220;14.480;2023-05-23T09:46:37;24.60;99.90
17891;DHT22;9071;48.220;14.480;2023-05-23T09:51:40;24.90;99.90
17891;DHT22;9071;48.220;14.480;2023-05-23T09:56:42;25.10;99.90
17891;DHT22;9071;48.220;14.480;2023-05-23T10:01:46;25.20;99.90
17891;DHT22;9071;48.220;14.480;2023-05-23T10:06:53;25.40;99.90
17891;DHT22;9071;48.220;14.480;2023-05-23T10:17:54;26.00;99.90
17891;DHT22;9071;48.220;14.480;2023-05-23T10:23:01;25.50;99.90
17891;DHT22;9071;48.220;14.480;2023-05-23T10:28:05;25.80;99.90
17891;DHT22;9071;48.220;14.480;2023-05-23T10:33:08;26.30;99.90
17891;DHT22;9071;48.220;14.480;2023-05-23T10:38:25;26.20;99.90
17891;DHT22;9071;48.220;14.480;2023-05-23T10:43:34;26.30;99.90
17891;DHT22;9071;48.220;14.480;2023-05-23T10:48:40;26.30;99.90
17891;DHT22;9071;48.220;14.480;2023-05-23T10:53:45;26.20;99.90
17891;DHT22;9071;48.220;14.480;2023-05-23T10:58:51;26.30;99.90
17891;DHT22;9071;48.220;14.480;2023-05-23T11:03:54;26.30;99.90
17891;DHT22;9071;48.220;14.480;2023-05-23T11:09:03;26.50;99.90
17891;DHT22;9071;48.220;14.480;2023-05-23T11:14:06;26.70;99.90
17891;DHT22;9071;48.220;14.480;2023-05-23T11:19:21;26.40;99.90
17891;DHT22;9071;48.220;14.480;2023-05-23T11:24:48;26.60;99.90
17891;DHT22;9071;48.220;14.480;2023-05-23T11:30:02;26.80;99.90
17891;DHT22;9071;48.220;14.480;2023-05-23T11:35:07;26.70;99.90
17891;DHT22;9071;48.220;14.480;2023-05-23T11:40:34;26.20;99.90
17891;DHT22;9071;48.220;14.480;2023-05-23T11:45:37;26.50;99.90
17891;DHT22;9071;48.220;14.480;2023-05-23T11:50:43;26.90;99.90
17891;DHT22;9071;48.220;14.480;2023-05-23T11:55:52;27.20;99.90
17891;DHT22;9071;48.220;14.480;2023-05-23T12:00:58;27.50;99.90
17891;DHT22;9071;48.220;14.480;2023-05-23T12:06:00;27.70;99.90
17891;DHT22;9071;48.220;14.480;2023-05-23T12:11:05;27.40;99.90
17891;DHT22;9071;48.220;14.480;2023-05-23T12:16:07;26.90;99.90
17891;DHT22;9071;48.220;14.480;2023-05-23T12:21:10;27.50;99.90
17891;DHT22;9071;48.220;14.480;2023-05-23T12:26:14;27.50;99.90
17891;DHT22;9071;48.220;14.480;2023-05-23T12:31:19;27.70;99.90
17891;DHT22;9071;48.220;14.480;2023-05-23T12:36:24;27.60;99.90
17891;DHT22;9071;48.220;14.480;2023-05-23T12:41:30;26.90;99.90
17891;DHT22;9071;48.220;14.480;2023-05-23T12:46:32;26.20;99.90
17891;DHT22;9071;48.220;14.480;2023-05-23T12:51:36;24.10;99.90
17891;DHT22;9071;48.220;14.480;2023-05-23T12:56:40;21.50;99.90
17891;DHT22;9071;48.220;14.480;2023-05-23T13:01:42;20.50;99.90
17891;DHT22;9071;48.220;14.480;2023-05-23T13:06:44;20.30;99.90
17891;DHT22;9071;48.220;14.480;2023-05-23T13:11:47;20.30;99.90
17891;DHT22;9071;48.220;14.480;2023-05-23T13:16:49;20.40;99.90
17891;DHT22;9071;48.220;14.480;2023-05-23T13:21:51;20.60;99.90
17891;DHT22;9071;48.220;14.480;2023-05-23T13:26:55;20.70;99.90
17891;DHT22;9071;48.220;14.480;2023-05-23T13:31:57;21.10;99.90
17891;DHT22;9071;48.220;14.480;2023-05-23T13:36:59;20.90;99.90
17891;DHT22;9071;48.220;14.480;2023-05-23T13:42:03;20.00;99.90
17891;DHT22;9071;48.220;14.480;2023-05-23T13:47:12;19.50;99.90
17891;DHT22;9071;48.220;14.480;2023-05-23T13:52:15;19.00;99.90
17891;DHT22;9071;48.220;14.480;2023-05-23T13:57:18;18.80;99.90
17891;DHT22;9071;48.220;14.480;2023-05-23T14:02:20;18.80;99.90
17891;DHT22;9071;48.220;14.480;2023-05-23T14:07:22;18.70;99.90
17891;DHT22;9071;48.220;14.480;2023-05-23T14:12:26;18.60;99.90
17891;DHT22;9071;48.220;14.480;2023-05-23T14:17:28;18.40;99.90
17891;DHT22;9071;48.220;14.480;2023-05-23T14:22:30;18.20;99.90
17891;DHT22;9071;48.220;14.480;2023-05-23T14:27:33;18.00;99.90
17891;DHT22;9071;48.220;14.480;2023-05-23T14:32:35;17.60;99.90
17891;DHT22;9071;48.220;14.480;2023-05-23T14:37:39;17.50;99.90
17891;DHT22;9071;48.220;14.480;2023-05-23T14:42:42;17.50;99.90
17891;DHT22;9071;48.220;14.480;2023-05-23T14:47:44;17.40;99.90
17891;DHT22;9071;48.220;14.480;2023-05-23T14:52:46;17.20;99.90
17891;DHT22;9071;48.220;14.480;2023-05-23T14:57:50;17.30;99.90
17891;DHT22;9071;48.220;14.480;2023-05-23T15:02:52;17.30;99.90
17891;DHT22;9071;48.220;14.480;2023-05-23T15:07:54;17.40;99.90
17891;DHT22;9071;48.220;14.480;2023-05-23T15:12:57;17.60;99.90
17891;DHT22;9071;48.220;14.480;2023-05-23T15:17:59;17.60;99.90
17891;DHT22;9071;48.220;14.480;2023-05-23T15:23:06;17.70;99.90
17891;DHT22;9071;48.220;14.480;2023-05-23T15:28:11;17.60;99.90
17891;DHT22;9071;48.220;14.480;2023-05-23T15:33:13;17.50;99.90
17891;DHT22;9071;48.220;14.480;2023-05-23T15:38:15;17.50;99.90
17891;DHT22;9071;48.220;14.480;2023-05-23T15:43:19;17.20;99.90
17891;DHT22;9071;48.220;14.480;2023-05-23T15:48:21;17.10;99.90
17891;DHT22;9071;48.220;14.480;2023-05-23T15:53:23;17.10;99.90
17891;DHT22;9071;48.220;14.480;2023-05-23T15:58:26;17.20;99.90
17891;DHT22;9071;48.220;14.480;2023-05-23T16:03:28;17.20;99.90
17891;DHT22;9071;48.220;14.480;2023-05-23T16:08:30;17.10;99.90
17891;DHT22;9071;48.220;14.480;2023-05-23T16:13:34;17.00;99.90
17891;DHT22;9071;48.220;14.480;2023-05-23T16:18:36;17.00;99.90
17891;DHT22;9071;48.220;14.480;2023-05-23T16:23:38;17.10;99.90
17891;DHT22;9071;48.220;14.480;2023-05-23T16:28:41;17.10;99.90
17891;DHT22;9071;48.220;14.480;2023-05-23T16:33:43;17.20;99.90
17891;DHT22;9071;48.220;14.480;2023-05-23T16:38:45;17.30;99.90
17891;DHT22;9071;48.220;14.480;2023-05-23T16:43:49;17.30;99.90
17891;DHT22;9071;48.220;14.480;2023-05-23T16:48:51;17.40;99.90
17891;DHT22;9071;48.220;14.480;2023-05-23T16:53:53;17.40;99.90
17891;DHT22;9071;48.220;14.480;2023-05-23T16:58:56;17.60;99.90
17891;DHT22;9071;48.220;14.480;2023-05-23T17:03:58;17.80;99.90
17891;DHT22;9071;48.220;14.480;2023-05-23T17:09:00;17.80;99.90
17891;DHT22;9071;48.220;14.480;2023-05-23T17:14:04;17.70;99.90
17891;DHT22;9071;48.220;14.480;2023-05-23T17:19:06;17.70;99.90
17891;DHT22;9071;48.220;14.480;2023-05-23T17:24:08;17.90;99.90
17891;DHT22;9071;48.220;14.480;2023-05-23T17:29:11;17.90;99.90
17891;DHT22;9071;48.220;14.480;2023-05-23T17:34:14;17.80;99.90
17891;DHT22;9071;48.220;14.480;2023-05-23T17:39:17;17.70;99.90
17891;DHT22;9071;48.220;14.480;2023-05-23T17:44:21;17.50;99.90
17891;DHT22;9071;48.220;14.480;2023-05-23T17:49:23;17.40;99.90
17891;DHT22;9071;48.220;14.480;2023-05-23T17:54:25;17.30;99.90
17891;DHT22;9071;48.220;14.480;2023-05-23T17:59:29;17.30;99.90
17891;DHT22;9071;48.220;14.480;2023-05-23T18:04:32;17.20;99.90
17891;DHT22;9071;48.220;14.480;2023-05-23T18:09:34;17.30;99.90
17891;DHT22;9071;48.220;14.480;2023-05-23T18:14:37;17.40;99.90
17891;DHT22;9071;48.220;14.480;2023-05-23T18:19:40;17.40;99.90
17891;DHT22;9071;48.220;14.480;2023-05-23T18:24:42;17.30;99.90
17891;DHT22;9071;48.220;14.480;2023-05-23T18:29:45;17.00;99.90
17891;DHT22;9071;48.220;14.480;2023-05-23T18:34:47;16.70;99.90
17891;DHT22;9071;48.220;14.480;2023-05-23T18:39:49;16.50;99.90
17891;DHT22;9071;48.220;14.480;2023-05-23T18:44:53;16.40;99.90
17891;DHT22;9071;48.220;14.480;2023-05-23T18:49:55;16.40;99.90
17891;DHT22;9071;48.220;14.480;2023-05-23T18:54:57;16.30;99.90
17891;DHT22;9071;48.220;14.480;2023-05-23T19:00:01;16.30;99.90
17891;DHT22;9071;48.220;14.480;2023-05-23T19:05:04;16.30;99.90
17891;DHT22;9071;48.220;14.480;2023-05-23T19:10:07;16.20;99.90
17891;DHT22;9071;48.220;14.480;2023-05-23T19:15:11;16.20;99.90
17891;DHT22;9071;48.220;14.480;2023-05-23T19:20:13;16.00;99.90
17891;DHT22;9071;48.220;14.480;2023-05-23T19:25:18;16.00;99.90
17891;DHT22;9071;48.220;14.480;2023-05-23T19:30:21;15.90;99.90
17891;DHT22;9071;48.220;14.480;2023-05-23T19:35:23;15.80;99.90
17891;DHT22;9071;48.220;14.480;2023-05-23T19:40:26;15.80;99.90
17891;DHT22;9071;48.220;14.480;2023-05-23T19:45:29;15.80;99.90
17891;DHT22;9071;48.220;14.480;2023-05-23T19:50:31;15.90;99.90
17891;DHT22;9071;48.220;14.480;2023-05-23T19:55:34;16.00;99.90
17891;DHT22;9071;48.220;14.480;2023-05-23T20:00:37;16.10;99.90
17891;DHT22;9071;48.220;14.480;2023-05-23T20:05:39;16.20;99.90
17891;DHT22;9071;48.220;14.480;2023-05-23T20:10:41;16.20;99.90
17891;DHT22;9071;48.220;14.480;2023-05-23T20:15:45;16.30;99.90
17891;DHT22;9071;48.220;14.480;2023-05-23T20:20:47;16.40;99.90
17891;DHT22;9071;48.220;14.480;2023-05-23T20:25:49;16.40;99.90
17891;DHT22;9071;48.220;14.480;2023-05-23T20:30:53;16.30;99.90
17891;DHT22;9071;48.220;14.480;2023-05-23T20:35:56;16.30;99.90
17891;DHT22;9071;48.220;14.480;2023-05-23T20:40:58;16.30;99.90
17891;DHT22;9071;48.220;14.480;2023-05-23T20:46:07;16.20;99.90
17891;DHT22;9071;48.220;14.480;2023-05-23T20:51:09;16.20;99.90
17891;DHT22;9071;48.220;14.480;2023-05-23T20:56:12;16.10;99.90
17891;DHT22;9071;48.220;14.480;2023-05-23T21:01:15;16.00;99.90
17891;DHT22;9071;48.220;14.480;2023-05-23T21:06:18;15.90;99.90
17891;DHT22;9071;48.220;14.480;2023-05-23T21:11:20;15.90;99.90
17891;DHT22;9071;48.220;14.480;2023-05-23T21:16:24;15.90;99.90
17891;DHT22;9071;48.220;14.480;2023-05-23T21:21:26;15.90;99.90
17891;DHT22;9071;48.220;14.480;2023-05-23T21:26:29;15.90;99.90
17891;DHT22;9071;48.220;14.480;2023-05-23T21:31:33;15.90;99.90
17891;DHT22;9071;48.220;14.480;2023-05-23T21:36:35;15.80;99.90
17891;DHT22;9071;48.220;14.480;2023-05-23T21:41:37;15.80;99.90
17891;DHT22;9071;48.220;14.480;2023-05-23T21:46:41;15.80;99.90
17891;DHT22;9071;48.220;14.480;2023-05-23T21:51:43;15.80;99.90
17891;DHT22;9071;48.220;14.480;2023-05-23T21:56:46;15.80;99.90
17891;DHT22;9071;48.220;14.480;2023-05-23T22:01:50;15.80;99.90
17891;DHT22;9071;48.220;14.480;2023-05-23T22:06:52;15.70;99.90
17891;DHT22;9071;48.220;14.480;2023-05-23T22:11:54;15.60;99.90
17891;DHT22;9071;48.220;14.480;2023-05-23T22:16:57;15.60;99.90
17891;DHT22;9071;48.220;14.480;2023-05-23T22:22:01;15.60;99.90
17891;DHT22;9071;48.220;14.480;2023-05-23T22:27:04;15.60;99.90
17891;DHT22;9071;48.220;14.480;2023-05-23T22:32:08;15.60;99.90
17891;DHT22;9071;48.220;14.480;2023-05-23T22:37:10;15.60;99.90
17891;DHT22;9071;48.220;14.480;2023-05-23T22:42:12;15.70;99.90
17891;DHT22;9071;48.220;14.480;2023-05-23T22:47:16;15.70;99.90
17891;DHT22;9071;48.220;14.480;2023-05-23T22:52:18;15.80;99.90
17891;DHT22;9071;48.220;14.480;2023-05-23T22:57:21;15.80;99.90
17891;DHT22;9071;48.220;14.480;2023-05-23T23:02:25;15.80;99.90
17891;DHT22;9071;48.220;14.480;2023-05-23T23:07:27;15.80;99.90
17891;DHT22;9071;48.220;14.480;2023-05-23T23:12:29;15.80;99.90
17891;DHT22;9071;48.220;14.480;2023-05-23T23:17:32;15.80;99.90
17891;DHT22;9071;48.220;14.480;2023-05-23T23:22:34;15.80;99.90
17891;DHT22;9071;48.220;14.480;2023-05-23T23:27:37;15.80;99.90
17891;DHT22;9071;48.220;14.480;2023-05-23T23:32:40;15.80;99.90
17891;DHT22;9071;48.220;14.480;2023-05-23T23:37:42;15.80;99.90
17891;DHT22;9071;48.220;14.480;2023-05-23T23:42:44;15.70;99.90
17891;DHT22;9071;48.220;14.480;2023-05-23T23:47:48;15.50;99.90
17891;DHT22;9071;48.220;14.480;2023-05-23T23:52:50;15.30;99.90
17891;DHT22;9071;48.220;14.480;2023-05-23T23:57:52;15.10;99.90
